createdAt,value
2022-08-23T00:02:27.032Z,16.86
2022-08-23T00:05:03.632Z,16.80
2022-08-23T00:07:39.007Z,16.81
2022-08-23T00:10:10.795Z,16.82
2022-08-23T00:12:38.861Z,16.83
2022-08-23T00:15:07.348Z,16.84
2022-08-23T00:17:35.597Z,16.80
2022-08-23T00:20:06.915Z,16.83
2022-08-23T00:22:34.104Z,16.93
2022-08-23T00:25:00.657Z,16.89
2022-08-23T00:27:27.691Z,16.84
2022-08-23T00:29:55.717Z,16.76
2022-08-23T00:32:25.830Z,16.66
2022-08-23T00:34:52.662Z,16.58
2022-08-23T00:37:19.727Z,16.53
2022-08-23T00:39:46.449Z,16.51
2022-08-23T00:42:56.748Z,16.44
2022-08-23T00:45:49.792Z,16.37
2022-08-23T00:48:16.521Z,16.33
2022-08-23T00:50:51.351Z,16.28
2022-08-23T00:53:21.798Z,16.28
2022-08-23T00:55:51.730Z,16.30
2022-08-23T00:58:20.472Z,16.30
2022-08-23T01:00:49.947Z,16.30
2022-08-23T01:03:16.842Z,16.32
2022-08-23T01:06:14.193Z,16.29
2022-08-23T01:08:45.530Z,16.26
2022-08-23T01:11:17.486Z,16.22
2022-08-23T01:13:53.308Z,16.17
2022-08-23T01:16:26.120Z,16.12
2022-08-23T01:18:54.982Z,16.02
2022-08-23T01:21:31.243Z,15.96
2022-08-23T01:24:01.318Z,15.89
2022-08-23T01:26:28.430Z,15.83
2022-08-23T01:28:55.446Z,15.79
2022-08-23T01:31:23.745Z,15.76
2022-08-23T01:33:55.401Z,15.70
2022-08-23T01:36:22.494Z,15.66
2022-08-23T01:38:51.708Z,15.64
2022-08-23T01:41:19.341Z,15.60
2022-08-23T01:43:46.305Z,15.60
2022-08-23T01:46:18.026Z,15.58
2022-08-23T01:48:46.435Z,15.55
2022-08-23T01:51:16.733Z,15.57
2022-08-23T01:53:44.665Z,15.54
2022-08-23T01:56:11.441Z,15.42
2022-08-23T01:58:39.315Z,15.36
2022-08-23T02:01:06.648Z,15.28
2022-08-23T02:03:34.454Z,15.24
2022-08-23T02:06:01.157Z,15.15
2022-08-23T02:08:46.640Z,15.11
2022-08-23T02:11:16.452Z,15.00
2022-08-23T02:13:46.382Z,14.95
2022-08-23T02:16:22.107Z,14.99
2022-08-23T02:18:48.776Z,15.01
2022-08-23T02:21:16.545Z,15.00
2022-08-23T02:23:43.578Z,15.00
2022-08-23T02:26:10.570Z,14.98
2022-08-23T02:28:37.703Z,15.00
2022-08-23T02:31:04.413Z,15.02
2022-08-23T02:38:49.921Z,14.86
2022-08-23T02:41:17.656Z,14.70
2022-08-23T02:43:45.227Z,14.55
2022-08-23T02:46:12.672Z,14.42
2022-08-23T02:48:39.827Z,14.32
2022-08-23T02:51:08.235Z,14.33
2022-08-23T02:53:34.966Z,14.39
2022-08-23T02:56:05.481Z,14.35
2022-08-23T02:58:40.256Z,14.43
2022-08-23T03:01:22.307Z,14.52
2022-08-23T03:03:51.954Z,14.59
2022-08-23T03:06:24.794Z,14.64
2022-08-23T03:08:53.626Z,14.56
2022-08-23T03:11:21.792Z,14.47
2022-08-23T03:13:52.538Z,14.34
2022-08-23T03:16:19.601Z,14.25
2022-08-23T03:18:48.288Z,14.10
2022-08-23T03:21:15.021Z,14.02
2022-08-23T03:23:41.855Z,14.05
2022-08-23T03:26:10.886Z,14.07
2022-08-23T03:28:39.429Z,14.09
2022-08-23T03:31:07.215Z,14.15
2022-08-23T03:33:41.879Z,14.18
2022-08-23T03:36:11.285Z,14.15
2022-08-23T03:38:39.635Z,14.06
2022-08-23T03:41:08.915Z,13.93
2022-08-23T03:43:36.371Z,13.86
2022-08-23T03:46:03.350Z,13.84
2022-08-23T03:48:31.095Z,13.87
2022-08-23T03:50:58.613Z,13.78
2022-08-23T03:53:25.296Z,13.79
2022-08-23T03:55:53.371Z,13.71
2022-08-23T03:58:21.813Z,13.65
2022-08-23T04:00:48.982Z,13.67
2022-08-23T04:03:16.142Z,13.67
2022-08-23T04:06:08.812Z,13.61
2022-08-23T04:08:35.720Z,13.69
2022-08-23T04:11:05.341Z,13.68
2022-08-23T04:13:33.085Z,13.68
2022-08-23T04:16:03.590Z,13.70
2022-08-23T04:18:31.990Z,13.67
2022-08-23T04:21:01.374Z,13.68
2022-08-23T04:23:28.185Z,13.68
2022-08-23T04:25:56.210Z,13.61
2022-08-23T04:28:24.245Z,13.51
2022-08-23T04:30:51.652Z,13.49
2022-08-23T04:33:18.403Z,13.49
2022-08-23T04:35:48.253Z,13.61
2022-08-23T04:38:18.065Z,13.68
2022-08-23T04:41:11.123Z,13.76
2022-08-23T04:43:39.201Z,13.85
2022-08-23T04:46:05.959Z,13.89
2022-08-23T04:48:35.521Z,13.97
2022-08-23T04:51:02.525Z,14.04
2022-08-23T04:53:35.249Z,14.15
2022-08-23T04:56:28.451Z,14.25
2022-08-23T04:58:55.248Z,14.32
2022-08-23T05:01:25.421Z,14.38
2022-08-23T05:03:53.399Z,14.45
2022-08-23T05:06:23.344Z,14.48
2022-08-23T05:08:49.987Z,14.55
2022-08-23T05:11:18.926Z,14.66
2022-08-23T05:13:47.049Z,14.73
2022-08-23T05:16:14.444Z,14.69
2022-08-23T05:18:49.261Z,14.76
2022-08-23T05:21:18.471Z,14.88
2022-08-23T05:23:50.768Z,14.94
2022-08-23T05:26:23.215Z,15.04
2022-08-23T05:28:50.522Z,15.10
2022-08-23T05:31:22.436Z,15.04
2022-08-23T05:33:54.394Z,15.11
2022-08-23T05:36:30.958Z,15.18
2022-08-23T05:38:58.049Z,15.17
2022-08-23T05:41:29.107Z,15.17
2022-08-23T05:44:08.017Z,15.19
2022-08-23T05:46:35.980Z,15.20
2022-08-23T05:49:23.289Z,15.36
2022-08-23T05:51:51.441Z,15.45
2022-08-23T05:54:19.096Z,15.50
2022-08-23T05:56:53.083Z,15.52
2022-08-23T05:59:20.378Z,15.50
2022-08-23T06:01:47.004Z,15.52
2022-08-23T06:04:18.943Z,15.53
2022-08-23T06:06:45.974Z,15.62
2022-08-23T06:09:14.808Z,15.74
2022-08-23T06:11:44.864Z,15.89
2022-08-23T06:14:13.091Z,16.01
2022-08-23T06:16:42.988Z,16.15
2022-08-23T06:19:13.018Z,16.33
2022-08-23T06:21:49.455Z,16.50
2022-08-23T06:24:23.284Z,16.65
2022-08-23T06:27:08.776Z,16.83
2022-08-23T06:29:35.523Z,16.95
2022-08-23T06:32:20.832Z,16.96
2022-08-23T06:35:15.866Z,17.02
2022-08-23T06:38:18.076Z,17.21
2022-08-23T06:41:11.681Z,17.34
2022-08-23T06:43:49.453Z,17.51
2022-08-23T06:46:23.477Z,17.57
2022-08-23T06:48:50.934Z,17.61
2022-08-23T06:51:27.842Z,17.75
2022-08-23T06:54:26.683Z,17.94
2022-08-23T06:56:54.047Z,18.07
2022-08-23T06:59:41.794Z,18.19
2022-08-23T07:02:31.962Z,18.39
2022-08-23T07:04:58.959Z,18.54
2022-08-23T07:07:39.634Z,18.61
2022-08-23T07:10:13.071Z,18.69
2022-08-23T07:12:42.641Z,18.69
2022-08-23T07:15:12.659Z,18.78
2022-08-23T07:17:42.267Z,18.83
2022-08-23T07:20:09.355Z,18.88
2022-08-23T07:22:38.992Z,19.02
2022-08-23T07:25:06.436Z,19.08
2022-08-23T07:27:34.670Z,19.18
2022-08-23T07:30:05.368Z,19.26
2022-08-23T07:32:32.407Z,19.32
2022-08-23T07:35:07.070Z,19.37
2022-08-23T07:37:34.469Z,19.50
2022-08-23T07:40:04.380Z,19.61
2022-08-23T07:42:33.009Z,19.72
2022-08-23T07:45:00.057Z,19.80
2022-08-23T07:47:28.671Z,19.93
2022-08-23T07:49:56.853Z,20.03
2022-08-23T07:52:23.595Z,20.09
2022-08-23T07:54:50.433Z,20.22
2022-08-23T07:57:46.322Z,20.31
2022-08-23T08:00:37.227Z,20.43
2022-08-23T08:03:23.338Z,20.48
2022-08-23T08:06:11.716Z,20.72
2022-08-23T08:08:41.046Z,20.94
2022-08-23T08:11:09.154Z,21.11
2022-08-23T08:13:41.722Z,21.20
2022-08-23T08:16:08.925Z,21.29
2022-08-23T08:18:39.481Z,21.47
2022-08-23T08:21:29.518Z,21.65
2022-08-23T08:24:01.780Z,21.87
2022-08-23T08:26:45.074Z,22.14
2022-08-23T08:29:13.007Z,22.43
2022-08-23T08:31:43.457Z,22.66
2022-08-23T08:34:10.388Z,22.84
2022-08-23T08:36:44.387Z,22.91
2022-08-23T08:39:19.788Z,22.97
2022-08-23T08:42:11.964Z,22.91
2022-08-23T08:44:51.887Z,22.87
2022-08-23T08:47:38.612Z,23.10
2022-08-23T08:50:16.087Z,23.43
2022-08-23T08:52:48.276Z,23.16
2022-08-23T08:55:38.789Z,23.10
2022-08-23T08:58:06.794Z,23.27
2022-08-23T09:00:38.758Z,23.42
2022-08-23T09:03:11.882Z,23.71
2022-08-23T09:05:39.853Z,23.97
2022-08-23T09:08:12.858Z,24.17
2022-08-23T09:10:58.664Z,24.17
2022-08-23T09:14:03.339Z,24.17
2022-08-23T09:16:46.452Z,24.02
2022-08-23T09:19:13.353Z,24.16
2022-08-23T09:21:40.065Z,24.51
2022-08-23T09:24:07.582Z,24.30
2022-08-23T09:26:45.450Z,24.31
2022-08-23T09:29:14.807Z,24.41
2022-08-23T09:31:44.094Z,24.43
2022-08-23T09:34:36.351Z,24.46
2022-08-23T09:37:23.604Z,24.51
2022-08-23T09:39:53.848Z,24.52
2022-08-23T09:42:27.222Z,24.89
2022-08-23T09:44:54.265Z,25.15
2022-08-23T09:47:34.653Z,25.27
2022-08-23T09:50:16.350Z,25.40
2022-08-23T09:52:43.379Z,25.06
2022-08-23T09:55:25.640Z,25.06
2022-08-23T09:57:52.530Z,24.98
2022-08-23T10:00:25.701Z,25.13
2022-08-23T10:02:57.415Z,25.13
2022-08-23T10:05:39.263Z,25.23
2022-08-23T10:08:10.951Z,25.43
2022-08-23T10:10:48.086Z,25.40
2022-08-23T10:13:20.715Z,25.46
2022-08-23T10:16:13.596Z,25.53
2022-08-23T10:19:13.348Z,25.68
2022-08-23T10:22:15.883Z,25.84
2022-08-23T10:25:16.150Z,25.69
2022-08-23T10:28:15.186Z,25.55
2022-08-23T10:30:48.282Z,25.32
2022-08-23T10:33:20.524Z,25.21
2022-08-23T10:36:09.012Z,25.16
2022-08-23T10:38:41.111Z,25.19
2022-08-23T10:41:18.532Z,25.35
2022-08-23T10:43:59.172Z,25.45
2022-08-23T10:46:28.159Z,25.37
2022-08-23T10:48:57.911Z,25.35
2022-08-23T10:51:32.212Z,25.30
2022-08-23T10:54:12.638Z,25.34
2022-08-23T10:56:48.570Z,25.53
2022-08-23T10:59:23.836Z,25.53
2022-08-23T11:02:29.222Z,25.52
2022-08-23T11:05:27.002Z,25.42
2022-08-23T11:08:02.437Z,25.26
2022-08-23T11:10:39.192Z,25.45
2022-08-23T11:13:18.388Z,25.57
2022-08-23T11:16:00.942Z,25.82
2022-08-23T11:18:40.873Z,25.90
2022-08-23T11:21:44.622Z,25.78
2022-08-23T11:24:13.255Z,25.78
2022-08-23T11:26:40.062Z,25.64
2022-08-23T11:29:07.377Z,25.43
2022-08-23T11:31:51.253Z,25.38
2022-08-23T11:34:30.036Z,25.69
2022-08-23T11:37:19.943Z,25.70
2022-08-23T11:40:00.422Z,25.14
2022-08-23T11:42:47.208Z,25.44
2022-08-23T11:45:22.394Z,25.50
2022-08-23T11:48:07.730Z,25.61
2022-08-23T11:50:57.712Z,25.48
2022-08-23T11:53:43.069Z,25.45
2022-08-23T11:56:21.055Z,25.54
2022-08-23T11:59:12.913Z,25.40
2022-08-23T12:01:40.722Z,25.52
2022-08-23T12:04:25.785Z,25.57
2022-08-23T12:06:58.121Z,25.82
2022-08-23T12:09:24.585Z,26.04
2022-08-23T12:11:57.056Z,26.12
2022-08-23T12:14:32.751Z,26.17
2022-08-23T12:17:06.123Z,26.31
2022-08-23T12:19:40.935Z,26.18
2022-08-23T12:22:14.023Z,26.06
2022-08-23T12:24:52.021Z,26.05
2022-08-23T12:27:34.169Z,26.05
2022-08-23T12:30:03.878Z,26.16
2022-08-23T12:32:55.012Z,26.03
2022-08-23T12:35:24.791Z,26.20
2022-08-23T12:38:21.521Z,26.26
2022-08-23T12:40:54.411Z,26.43
2022-08-23T12:43:24.021Z,26.29
2022-08-23T12:46:00.828Z,26.14
2022-08-23T12:48:33.194Z,25.96
2022-08-23T12:51:08.518Z,25.94
2022-08-23T12:53:42.671Z,26.01
2022-08-23T12:56:18.475Z,26.18
2022-08-23T12:58:57.355Z,26.38
2022-08-23T13:01:30.147Z,26.42
2022-08-23T13:04:04.860Z,26.63
2022-08-23T13:06:40.794Z,26.75
2022-08-23T13:09:14.151Z,26.89
2022-08-23T13:11:42.555Z,27.02
2022-08-23T13:14:34.413Z,27.13
2022-08-23T13:17:19.841Z,27.18
2022-08-23T13:19:53.670Z,27.23
2022-08-23T13:22:25.658Z,27.01
2022-08-23T13:25:24.543Z,26.80
2022-08-23T13:27:46.441Z,26.90
2022-08-23T13:30:12.889Z,26.92
2022-08-23T13:32:45.241Z,26.96
2022-08-23T13:35:23.891Z,26.93
2022-08-23T13:37:52.101Z,26.60
2022-08-23T13:40:25.558Z,26.25
2022-08-23T13:43:03.078Z,26.05
2022-08-23T13:45:33.045Z,26.13
2022-08-23T13:48:13.255Z,26.08
2022-08-23T13:50:40.888Z,26.43
2022-08-23T13:53:15.912Z,26.62
2022-08-23T13:55:46.353Z,26.93
2022-08-23T13:58:17.559Z,27.10
2022-08-23T14:00:45.734Z,27.09
2022-08-23T14:03:21.782Z,27.24
2022-08-23T14:05:48.506Z,27.23
2022-08-23T14:08:15.548Z,27.04
2022-08-23T14:10:42.823Z,27.33
2022-08-23T14:13:11.437Z,27.50
2022-08-23T14:18:26.729Z,27.58
2022-08-23T14:20:53.555Z,27.45
2022-08-23T14:23:20.166Z,27.47
2022-08-23T14:25:47.411Z,27.45
2022-08-23T14:28:13.958Z,27.64
2022-08-23T14:30:40.684Z,27.80
2022-08-23T14:33:07.375Z,28.07
2022-08-23T14:35:33.997Z,28.11
2022-08-23T14:38:03.396Z,28.11
2022-08-23T14:40:30.681Z,28.40
2022-08-23T14:42:57.465Z,28.74
2022-08-23T14:45:24.085Z,28.76
2022-08-23T14:47:50.629Z,28.65
2022-08-23T14:50:17.458Z,28.66
2022-08-23T14:52:45.855Z,28.72
2022-08-23T14:55:13.140Z,28.80
2022-08-23T14:57:40.114Z,29.01
2022-08-23T15:00:13.609Z,29.02
2022-08-23T15:02:44.369Z,28.97
2022-08-23T15:05:12.642Z,28.81
2022-08-23T15:07:39.782Z,28.40
2022-08-23T15:10:09.805Z,28.00
2022-08-23T15:15:23.367Z,28.11
2022-08-23T15:17:54.793Z,28.16
2022-08-23T15:20:24.214Z,28.19
2022-08-23T15:22:55.378Z,28.15
2022-08-23T15:25:23.405Z,27.73
2022-08-23T15:27:50.938Z,27.57
2022-08-23T15:30:18.019Z,27.23
2022-08-23T15:32:52.466Z,26.87
2022-08-23T15:35:23.633Z,26.59
2022-08-23T15:37:50.276Z,26.47
2022-08-23T15:40:16.970Z,26.25
2022-08-23T15:42:43.729Z,25.99
2022-08-23T15:45:10.790Z,25.78
2022-08-23T15:47:46.382Z,25.65
2022-08-23T15:50:13.365Z,25.59
2022-08-23T15:52:39.980Z,25.60
2022-08-23T15:55:06.881Z,26.01
2022-08-23T15:57:45.098Z,26.54
2022-08-23T16:00:13.488Z,26.90
2022-08-23T16:03:04.381Z,27.14
2022-08-23T16:05:26.648Z,27.33
2022-08-23T16:07:56.165Z,27.40
2022-08-23T16:10:25.125Z,27.30
2022-08-23T16:12:54.677Z,27.34
2022-08-23T16:15:21.298Z,27.27
2022-08-23T16:17:49.112Z,27.23
2022-08-23T16:20:15.790Z,27.20
2022-08-23T16:22:42.401Z,27.18
2022-08-23T16:25:09.319Z,27.08
2022-08-23T16:27:36.394Z,27.32
2022-08-23T16:30:05.127Z,28.16
2022-08-23T16:32:31.658Z,28.92
2022-08-23T16:34:58.335Z,29.31
2022-08-23T16:37:25.549Z,29.95
2022-08-23T16:39:52.987Z,29.53
2022-08-23T16:42:19.873Z,28.98
2022-08-23T16:44:46.535Z,28.35
2022-08-23T16:47:14.627Z,27.96
2022-08-23T16:49:43.425Z,27.51
2022-08-23T16:52:10.679Z,27.32
2022-08-23T16:54:37.897Z,27.16
2022-08-23T16:57:05.265Z,27.00
2022-08-23T16:59:31.899Z,26.86
2022-08-23T17:02:01.822Z,26.76
2022-08-23T17:04:38.005Z,26.63
2022-08-23T17:07:04.741Z,26.56
2022-08-23T17:09:31.392Z,26.39
2022-08-23T17:11:58.478Z,26.20
2022-08-23T17:14:26.042Z,26.00
2022-08-23T17:16:52.732Z,25.78
2022-08-23T17:19:19.338Z,25.51
2022-08-23T17:21:45.930Z,25.25
2022-08-23T17:24:12.494Z,25.01
2022-08-23T17:26:39.553Z,24.79
2022-08-23T17:29:07.359Z,24.60
2022-08-23T17:31:34.039Z,24.47
2022-08-23T17:34:03.769Z,24.43
2022-08-23T17:36:34.291Z,24.36
2022-08-23T17:39:01.508Z,24.27
2022-08-23T17:41:28.511Z,24.21
2022-08-23T17:43:55.837Z,24.22
2022-08-23T17:46:24.569Z,24.19
2022-08-23T17:48:51.398Z,24.16
2022-08-23T17:51:18.078Z,24.08
2022-08-23T17:53:44.719Z,23.97
2022-08-23T17:56:12.318Z,23.81
2022-08-23T17:58:39.372Z,23.69
2022-08-23T18:01:06.433Z,23.52
2022-08-23T18:03:33.438Z,23.40
2022-08-23T18:06:00.532Z,23.27
2022-08-23T18:08:27.220Z,23.15
2022-08-23T18:10:53.983Z,23.06
2022-08-23T18:13:20.784Z,22.97
2022-08-23T18:15:47.504Z,22.95
2022-08-23T18:18:14.465Z,22.85
2022-08-23T18:20:41.089Z,22.75
2022-08-23T18:23:07.925Z,22.65
2022-08-23T18:25:35.230Z,22.52
2022-08-23T18:28:12.883Z,22.38
2022-08-23T18:30:47.708Z,22.21
2022-08-23T18:33:15.953Z,22.07
2022-08-23T18:35:45.798Z,21.96
2022-08-23T18:38:13.089Z,21.83
2022-08-23T18:40:45.596Z,21.70
2022-08-23T18:43:17.831Z,21.57
2022-08-23T18:45:45.049Z,21.50
2022-08-23T18:48:12.339Z,21.43
2022-08-23T18:50:40.363Z,21.43
2022-08-23T18:53:07.791Z,21.46
2022-08-23T18:55:36.437Z,21.49
2022-08-23T18:58:04.488Z,21.46
2022-08-23T19:00:31.492Z,21.50
2022-08-23T19:02:59.066Z,21.50
2022-08-23T19:05:25.784Z,21.57
2022-08-23T19:07:52.408Z,21.79
2022-08-23T19:10:20.595Z,21.88
2022-08-23T19:12:51.819Z,21.73
2022-08-23T19:15:21.119Z,21.57
2022-08-23T19:17:47.841Z,21.44
2022-08-23T19:20:15.698Z,21.25
2022-08-23T19:22:43.269Z,21.09
2022-08-23T19:25:09.870Z,21.03
2022-08-23T19:27:36.735Z,20.91
2022-08-23T19:30:06.567Z,20.83
2022-08-23T19:32:35.287Z,20.77
2022-08-23T19:35:02.051Z,20.73
2022-08-23T19:37:28.745Z,20.69
2022-08-23T19:39:55.556Z,20.65
2022-08-23T19:42:22.271Z,20.61
2022-08-23T19:44:49.597Z,20.54
2022-08-23T19:47:19.765Z,20.50
2022-08-23T19:49:48.422Z,20.47
2022-08-23T19:52:15.028Z,20.45
2022-08-23T19:54:41.575Z,20.43
2022-08-23T19:57:09.989Z,20.37
2022-08-23T19:59:41.110Z,20.32
2022-08-23T20:02:09.637Z,20.22
2022-08-23T20:04:36.925Z,20.13
2022-08-23T20:07:04.555Z,20.05
2022-08-23T20:09:32.530Z,19.97
2022-08-23T20:11:59.393Z,19.89
2022-08-23T20:14:27.701Z,19.86
2022-08-23T20:16:54.962Z,19.83
2022-08-23T20:19:22.018Z,19.82
2022-08-23T20:21:48.863Z,19.80
2022-08-23T20:24:16.038Z,19.76
2022-08-23T20:26:46.983Z,19.70
2022-08-23T20:29:19.270Z,19.68
2022-08-23T20:31:50.921Z,19.71
2022-08-23T20:34:17.542Z,19.71
2022-08-23T20:36:44.636Z,19.67
2022-08-23T20:39:11.348Z,19.73
2022-08-23T20:41:39.495Z,19.66
2022-08-23T20:44:07.351Z,19.61
2022-08-23T20:46:34.142Z,19.60
2022-08-23T20:49:00.748Z,19.58
2022-08-23T20:51:28.462Z,19.59
2022-08-23T20:53:56.156Z,19.58
2022-08-23T20:56:23.489Z,19.57
2022-08-23T20:58:50.889Z,19.51
2022-08-23T21:01:18.689Z,19.47
2022-08-23T21:03:45.713Z,19.44
2022-08-23T21:06:30.233Z,19.39
2022-08-23T21:08:59.078Z,19.39
2022-08-23T21:11:28.330Z,19.38
2022-08-23T21:13:56.037Z,19.38
2022-08-23T21:16:23.159Z,19.34
2022-08-23T21:18:50.138Z,19.32
2022-08-23T21:21:21.454Z,19.37
2022-08-23T21:23:48.683Z,19.36
2022-08-23T21:26:15.934Z,19.40
2022-08-23T21:28:42.553Z,19.38
2022-08-23T21:31:12.132Z,19.39
2022-08-23T21:33:40.343Z,19.37
2022-08-23T21:36:10.882Z,19.37
2022-08-23T21:38:38.156Z,19.40
2022-08-23T21:41:08.461Z,19.42
2022-08-23T21:43:37.231Z,19.40
2022-08-23T21:46:05.427Z,19.42
2022-08-23T21:48:32.340Z,19.38
2022-08-23T21:50:59.833Z,19.37
2022-08-23T21:53:26.990Z,19.36
2022-08-23T21:55:53.791Z,19.41
2022-08-23T21:58:20.666Z,19.36
2022-08-23T22:00:47.328Z,19.36
2022-08-23T22:03:14.025Z,19.30
2022-08-23T22:05:42.472Z,19.28
2022-08-23T22:08:09.572Z,19.24
2022-08-23T22:10:41.387Z,19.16
2022-08-23T22:13:14.866Z,19.13
2022-08-23T22:15:42.177Z,19.11
2022-08-23T22:18:08.855Z,19.10
2022-08-23T22:20:35.765Z,19.05
2022-08-23T22:23:02.673Z,19.00
2022-08-23T22:25:29.548Z,18.95
2022-08-23T22:27:56.500Z,18.92
2022-08-23T22:30:24.867Z,18.91
2022-08-23T22:32:51.478Z,18.84
2022-08-23T22:35:18.405Z,18.79
2022-08-23T22:38:03.649Z,18.77
2022-08-23T22:40:32.012Z,18.76
2022-08-23T22:42:58.623Z,18.73
2022-08-23T22:45:25.193Z,18.73
2022-08-23T22:47:51.803Z,18.69
2022-08-23T22:50:18.487Z,18.65
2022-08-23T22:52:45.441Z,18.61
2022-08-23T22:55:12.047Z,18.61
2022-08-23T22:57:38.710Z,18.60
2022-08-23T23:00:06.883Z,18.57
2022-08-23T23:02:37.406Z,18.54
2022-08-23T23:05:04.423Z,18.49
2022-08-23T23:07:49.775Z,18.47
2022-08-23T23:10:16.992Z,18.38
2022-08-23T23:12:43.554Z,18.24
2022-08-23T23:15:10.520Z,18.04
2022-08-23T23:17:38.530Z,17.85
2022-08-23T23:20:24.586Z,17.77
2022-08-23T23:22:51.876Z,17.71
2022-08-23T23:25:18.788Z,17.59
2022-08-23T23:27:45.613Z,17.53
2022-08-23T23:30:15.251Z,17.52
2022-08-23T23:32:43.297Z,17.46
2022-08-23T23:35:10.596Z,17.59
2022-08-23T23:37:37.702Z,17.70
2022-08-23T23:40:05.964Z,17.64
2022-08-23T23:42:33.007Z,17.54
2022-08-23T23:44:59.842Z,17.37
2022-08-23T23:47:26.811Z,17.15
2022-08-23T23:49:53.442Z,17.04
2022-08-23T23:52:20.499Z,16.95
2022-08-23T23:54:47.097Z,16.93
2022-08-23T23:57:13.926Z,16.89
2022-08-23T23:59:41.251Z,16.84
